createdAt,value
2022-10-03T00:00:11.609Z,16.24
2022-10-03T00:05:34.116Z,15.94
2022-10-03T00:10:47.689Z,15.99
2022-10-03T00:15:55.326Z,15.88
2022-10-03T00:21:17.578Z,15.86
2022-10-03T00:26:30.830Z,15.87
2022-10-03T00:31:44.227Z,16.09
2022-10-03T00:36:50.907Z,16.00
2022-10-03T00:42:19.698Z,15.83
2022-10-03T00:47:52.273Z,15.77
2022-10-03T00:53:09.682Z,15.89
2022-10-03T00:58:33.598Z,15.79
2022-10-03T01:03:47.450Z,15.71
2022-10-03T01:09:22.117Z,15.82
2022-10-03T01:14:34.155Z,15.90
2022-10-03T01:19:57.830Z,15.79
2022-10-03T01:25:00.585Z,15.75
2022-10-03T01:30:21.306Z,15.65
2022-10-03T01:35:31.068Z,15.71
2022-10-03T01:40:33.370Z,15.69
2022-10-03T01:45:47.689Z,15.57
2022-10-03T01:50:52.708Z,15.51
2022-10-03T01:56:00.607Z,15.33
2022-10-03T02:01:09.015Z,15.34
2022-10-03T02:06:18.914Z,15.53
2022-10-03T02:11:29.474Z,15.61
2022-10-03T02:16:37.831Z,15.69
2022-10-03T02:21:48.917Z,15.39
2022-10-03T02:27:18.230Z,15.32
2022-10-03T02:32:49.432Z,15.33
2022-10-03T02:38:14.004Z,15.30
2022-10-03T02:43:45.947Z,15.32
2022-10-03T02:49:29.243Z,15.42
2022-10-03T02:54:46.170Z,15.25
2022-10-03T03:00:12.175Z,15.12
2022-10-03T03:05:31.200Z,15.13
2022-10-03T03:11:03.287Z,15.07
2022-10-03T03:16:44.257Z,15.13
2022-10-03T03:21:54.959Z,15.41
2022-10-03T03:27:28.284Z,15.51
2022-10-03T03:32:34.656Z,15.41
2022-10-03T03:37:41.959Z,15.46
2022-10-03T03:43:11.084Z,15.49
2022-10-03T03:48:29.561Z,15.64
2022-10-03T03:53:51.213Z,15.70
2022-10-03T03:59:00.891Z,15.58
2022-10-03T04:04:14.196Z,15.62
2022-10-03T04:09:51.283Z,15.66
2022-10-03T04:15:21.166Z,15.53
2022-10-03T04:20:49.833Z,15.52
2022-10-03T04:26:05.092Z,15.42
2022-10-03T04:31:22.111Z,15.32
2022-10-03T04:36:47.232Z,15.60
2022-10-03T04:41:53.166Z,15.60
2022-10-03T04:46:57.614Z,15.40
2022-10-03T04:52:02.457Z,15.63
2022-10-03T04:57:07.516Z,15.81
2022-10-03T05:02:19.481Z,15.63
2022-10-03T05:07:28.368Z,15.73
2022-10-03T05:12:35.576Z,15.71
2022-10-03T05:17:46.639Z,15.36
2022-10-03T05:22:54.105Z,15.36
2022-10-03T05:28:00.832Z,15.47
2022-10-03T05:33:09.054Z,15.49
2022-10-03T05:38:34.414Z,15.50
2022-10-03T05:43:58.820Z,15.30
2022-10-03T05:49:11.831Z,15.17
2022-10-03T05:54:46.530Z,15.27
2022-10-03T06:00:10.834Z,14.93
2022-10-03T06:05:31.204Z,14.95
2022-10-03T06:10:59.719Z,15.07
2022-10-03T06:16:03.081Z,15.17
2022-10-03T06:21:27.493Z,15.09
2022-10-03T06:27:06.456Z,15.17
2022-10-03T06:32:25.861Z,15.40
2022-10-03T06:38:00.883Z,15.34
2022-10-03T06:43:32.770Z,15.39
2022-10-03T06:49:17.075Z,15.28
2022-10-03T06:55:09.194Z,15.09
2022-10-03T07:00:20.415Z,14.99
2022-10-03T07:05:55.480Z,15.19
2022-10-03T07:11:14.621Z,15.12
2022-10-03T07:16:50.366Z,15.27
2022-10-03T07:22:39.133Z,15.17
2022-10-03T07:27:53.777Z,14.89
2022-10-03T07:33:39.193Z,14.74
2022-10-03T07:39:00.360Z,14.61
2022-10-03T07:44:29.763Z,14.71
2022-10-03T07:50:05.733Z,14.84
2022-10-03T07:55:26.961Z,15.15
2022-10-03T08:00:27.526Z,15.16
2022-10-03T08:05:50.905Z,15.24
2022-10-03T08:11:12.843Z,15.09
2022-10-03T08:16:28.899Z,15.32
2022-10-03T08:21:39.252Z,15.42
2022-10-03T08:27:04.145Z,15.75
2022-10-03T08:32:33.760Z,15.91
2022-10-03T08:38:00.026Z,15.90
2022-10-03T08:43:31.064Z,16.07
2022-10-03T08:48:59.786Z,16.27
2022-10-03T08:54:25.737Z,16.30
2022-10-03T08:59:52.298Z,16.50
2022-10-03T09:05:29.410Z,16.24
2022-10-03T09:11:15.110Z,16.50
2022-10-03T09:16:42.504Z,16.43
2022-10-03T09:22:17.634Z,16.78
2022-10-03T09:27:31.640Z,17.28
2022-10-03T09:33:26.820Z,17.34
2022-10-03T09:38:58.213Z,17.72
2022-10-03T09:44:22.112Z,18.08
2022-10-03T09:49:45.310Z,18.05
2022-10-03T09:55:02.720Z,17.94
2022-10-03T10:00:17.008Z,17.89
2022-10-03T10:05:52.091Z,17.69
2022-10-03T10:11:18.197Z,17.46
2022-10-03T10:16:45.858Z,17.33
2022-10-03T10:22:08.251Z,17.48
2022-10-03T10:27:43.923Z,17.57
2022-10-03T10:33:14.161Z,16.91
2022-10-03T10:38:28.410Z,17.04
2022-10-03T10:44:10.019Z,16.99
2022-10-03T10:49:57.241Z,17.24
2022-10-03T10:55:58.198Z,17.45
2022-10-03T11:01:23.271Z,17.37
2022-10-03T11:07:11.926Z,17.34
2022-10-03T11:12:45.546Z,17.50
2022-10-03T11:18:25.925Z,17.80
2022-10-03T11:24:15.216Z,17.95
2022-10-03T11:30:06.463Z,18.38
2022-10-03T11:35:45.614Z,18.52
2022-10-03T11:40:58.560Z,18.55
2022-10-03T11:46:17.318Z,18.83
2022-10-03T11:51:21.151Z,19.05
2022-10-03T11:56:28.756Z,19.40
2022-10-03T12:01:45.109Z,19.74
2022-10-03T12:07:18.928Z,20.14
2022-10-03T12:12:28.260Z,20.29
2022-10-03T12:17:34.151Z,20.54
2022-10-03T12:22:46.781Z,20.87
2022-10-03T12:27:58.738Z,21.28
2022-10-03T12:33:14.946Z,21.73
2022-10-03T12:38:35.270Z,22.56
2022-10-03T12:43:48.811Z,23.16
2022-10-03T12:48:59.251Z,23.11
2022-10-03T12:54:09.029Z,23.23
2022-10-03T12:59:16.931Z,23.10
2022-10-03T13:04:31.170Z,22.93
2022-10-03T13:09:47.046Z,23.12
2022-10-03T13:15:43.064Z,23.19
2022-10-03T13:20:56.951Z,23.28
2022-10-03T13:26:10.278Z,23.43
2022-10-03T13:31:18.920Z,24.00
2022-10-03T13:36:24.702Z,23.75
2022-10-03T13:41:32.143Z,24.49
2022-10-03T13:46:45.175Z,25.85
2022-10-03T13:51:53.142Z,26.45
2022-10-03T13:56:59.326Z,27.57
2022-10-03T14:02:09.034Z,29.34
2022-10-03T14:07:19.612Z,30.40
2022-10-03T14:12:50.993Z,29.07
2022-10-03T14:17:58.368Z,28.49
2022-10-03T14:23:14.367Z,27.53
2022-10-03T14:28:21.903Z,26.24
2022-10-03T14:33:30.046Z,25.84
2022-10-03T14:39:05.288Z,25.08
2022-10-03T14:44:13.200Z,23.94
2022-10-03T14:49:48.495Z,23.29
2022-10-03T14:54:44.081Z,22.89
2022-10-03T14:59:43.003Z,22.44
2022-10-03T15:04:42.482Z,21.94
2022-10-03T15:09:50.499Z,21.30
2022-10-03T15:14:58.322Z,21.09
2022-10-03T15:19:59.906Z,21.31
2022-10-03T15:25:07.026Z,21.61
2022-10-03T15:30:07.754Z,21.90
2022-10-03T15:35:08.054Z,22.08
2022-10-03T15:40:20.611Z,21.93
2022-10-03T15:45:26.287Z,21.61
2022-10-03T15:50:27.279Z,21.65
2022-10-03T15:55:34.691Z,21.80
2022-10-03T16:00:37.995Z,21.84
2022-10-03T16:05:38.386Z,21.79
2022-10-03T16:10:43.542Z,21.62
2022-10-03T16:16:04.094Z,21.58
2022-10-03T16:21:05.735Z,21.43
2022-10-03T16:26:08.426Z,21.25
2022-10-03T16:31:14.343Z,21.04
2022-10-03T16:36:19.371Z,20.96
2022-10-03T16:41:24.567Z,20.86
2022-10-03T16:46:25.694Z,20.77
2022-10-03T16:51:28.883Z,20.69
2022-10-03T16:56:34.588Z,20.62
2022-10-03T17:01:38.898Z,20.58
2022-10-03T17:06:40.916Z,20.38
2022-10-03T17:11:43.884Z,20.21
2022-10-03T17:16:51.835Z,20.09
2022-10-03T17:21:55.305Z,19.78
2022-10-03T17:26:58.066Z,19.73
2022-10-03T17:32:03.148Z,19.64
2022-10-03T17:37:16.361Z,19.37
2022-10-03T17:42:32.565Z,19.22
2022-10-03T17:47:40.408Z,19.14
2022-10-03T17:52:43.001Z,18.56
2022-10-03T17:57:49.455Z,18.66
2022-10-03T18:02:56.983Z,18.46
2022-10-03T18:07:58.295Z,18.17
2022-10-03T18:13:02.267Z,18.02
2022-10-03T18:18:17.967Z,17.77
2022-10-03T18:23:50.090Z,17.57
2022-10-03T18:28:51.701Z,17.53
2022-10-03T18:33:56.417Z,17.40
2022-10-03T18:39:02.021Z,17.48
2022-10-03T18:44:04.550Z,17.38
2022-10-03T18:49:32.026Z,17.21
2022-10-03T18:54:39.576Z,17.01
2022-10-03T18:59:53.745Z,16.92
2022-10-03T19:04:58.171Z,16.94
2022-10-03T19:10:28.988Z,16.93
2022-10-03T19:15:44.030Z,16.84
2022-10-03T19:20:47.648Z,16.80
2022-10-03T19:25:52.578Z,16.81
2022-10-03T19:31:02.338Z,16.55
2022-10-03T19:36:05.494Z,16.55
2022-10-03T19:41:14.743Z,16.26
2022-10-03T19:46:27.087Z,15.84
2022-10-03T19:51:27.565Z,15.84
2022-10-03T19:56:28.611Z,15.95
2022-10-03T20:01:29.270Z,15.94
2022-10-03T20:06:30.817Z,15.94
2022-10-03T20:11:42.306Z,15.94
2022-10-03T20:16:47.962Z,16.05
2022-10-03T20:21:53.419Z,15.89
2022-10-03T20:27:04.768Z,15.64
2022-10-03T20:32:06.631Z,15.50
2022-10-03T20:37:25.239Z,15.48
2022-10-03T20:42:30.928Z,15.45
2022-10-03T20:47:58.135Z,15.54
2022-10-03T20:53:00.143Z,15.37
2022-10-03T20:58:11.332Z,15.34
2022-10-03T21:03:20.425Z,15.18
2022-10-03T21:08:22.868Z,14.95
2022-10-03T21:13:25.151Z,14.83
2022-10-03T21:18:27.920Z,14.79
2022-10-03T21:23:28.148Z,14.67
2022-10-03T21:28:30.793Z,14.47
2022-10-03T21:33:35.695Z,14.53
2022-10-03T21:38:36.163Z,14.52
2022-10-03T21:43:44.565Z,14.59
2022-10-03T21:48:58.064Z,14.66
2022-10-03T21:54:25.394Z,14.51
2022-10-03T21:59:44.576Z,14.57
2022-10-03T22:04:49.370Z,14.49
2022-10-03T22:09:50.082Z,14.39
2022-10-03T22:14:56.698Z,14.52
2022-10-03T22:20:12.636Z,14.51
2022-10-03T22:25:26.501Z,14.63
2022-10-03T22:30:25.301Z,14.51
2022-10-03T22:35:42.167Z,14.44
2022-10-03T22:40:42.336Z,14.40
2022-10-03T22:45:45.423Z,14.38
2022-10-03T22:50:46.407Z,14.10
2022-10-03T22:55:49.013Z,14.04
2022-10-03T23:00:53.253Z,13.97
2022-10-03T23:06:16.732Z,14.14
2022-10-03T23:11:22.364Z,14.20
2022-10-03T23:16:44.441Z,14.19
2022-10-03T23:21:49.034Z,14.15
2022-10-03T23:27:14.720Z,14.18
2022-10-03T23:32:13.480Z,14.10
2022-10-03T23:37:43.581Z,13.81
2022-10-03T23:42:44.518Z,13.89
2022-10-03T23:47:52.967Z,13.91
2022-10-03T23:52:56.420Z,13.58
2022-10-03T23:57:55.741Z,13.71
